createdAt,value
2023-03-26T00:02:07.764Z,7.85
2023-03-26T00:04:35.680Z,7.89
2023-03-26T00:07:05.246Z,7.89
2023-03-26T00:09:33.170Z,7.90
2023-03-26T00:12:03.853Z,7.85
2023-03-26T00:14:32.659Z,7.88
2023-03-26T00:17:00.585Z,7.86
2023-03-26T00:19:30.158Z,7.95
2023-03-26T00:21:58.263Z,7.92
2023-03-26T00:24:29.597Z,7.86
2023-03-26T00:26:58.179Z,7.79
2023-03-26T00:29:28.006Z,7.84
2023-03-26T00:32:01.800Z,7.84
2023-03-26T00:34:35.319Z,7.88
2023-03-26T00:37:05.786Z,7.89
2023-03-26T00:39:37.638Z,7.87
2023-03-26T00:42:08.322Z,7.83
2023-03-26T00:44:36.737Z,7.84
2023-03-26T00:47:05.904Z,7.88
2023-03-26T00:49:37.004Z,7.85
2023-03-26T00:52:08.910Z,7.85
2023-03-26T00:54:40.791Z,7.90
2023-03-26T00:57:11.064Z,7.86
2023-03-26T00:59:41.117Z,7.89
2023-03-26T01:02:17.685Z,7.81
2023-03-26T01:04:49.538Z,7.84
2023-03-26T01:07:21.990Z,7.78
2023-03-26T01:09:54.155Z,7.84
2023-03-26T01:12:27.216Z,7.80
2023-03-26T01:15:01.773Z,7.83
2023-03-26T01:17:37.923Z,7.63
2023-03-26T01:20:15.317Z,7.58
2023-03-26T01:22:53.070Z,7.51
2023-03-26T01:25:34.189Z,7.54
2023-03-26T01:28:12.604Z,7.55
2023-03-26T01:30:49.859Z,7.46
2023-03-26T01:33:30.674Z,7.49
2023-03-26T01:36:07.877Z,7.46
2023-03-26T01:38:51.019Z,7.46
2023-03-26T01:41:31.106Z,7.47
2023-03-26T01:44:09.106Z,7.48
2023-03-26T01:46:38.031Z,7.42
2023-03-26T01:49:12.865Z,7.41
2023-03-26T01:51:43.762Z,7.46
2023-03-26T01:54:19.536Z,7.46
2023-03-26T01:57:06.258Z,7.48
2023-03-26T01:59:56.612Z,7.47
2023-03-26T02:02:37.137Z,7.50
2023-03-26T02:05:18.182Z,7.51
2023-03-26T02:07:56.418Z,7.55
2023-03-26T02:10:30.820Z,7.48
2023-03-26T02:13:03.030Z,7.45
2023-03-26T02:15:35.540Z,7.42
2023-03-26T02:18:04.978Z,7.41
2023-03-26T02:20:37.123Z,7.39
2023-03-26T02:23:13.062Z,7.34
2023-03-26T02:25:46.062Z,7.32
2023-03-26T02:28:26.675Z,7.22
2023-03-26T02:31:02.963Z,7.15
2023-03-26T02:33:33.416Z,7.10
2023-03-26T02:36:09.460Z,7.06
2023-03-26T02:38:43.346Z,7.04
2023-03-26T02:41:18.701Z,7.07
2023-03-26T02:43:53.083Z,7.06
2023-03-26T02:46:27.268Z,7.09
2023-03-26T02:49:03.056Z,7.14
2023-03-26T02:51:36.919Z,7.17
2023-03-26T02:54:10.249Z,7.18
2023-03-26T02:56:47.994Z,7.21
2023-03-26T02:59:22.258Z,7.24
2023-03-26T03:01:53.891Z,7.24
2023-03-26T03:04:27.952Z,7.24
2023-03-26T03:07:04.299Z,7.29
2023-03-26T03:09:40.797Z,7.27
2023-03-26T03:12:13.043Z,7.28
2023-03-26T03:14:47.645Z,7.34
2023-03-26T03:17:23.913Z,7.27
2023-03-26T03:19:56.505Z,7.33
2023-03-26T03:22:29.309Z,7.35
2023-03-26T03:25:00.923Z,7.35
2023-03-26T03:27:34.873Z,7.38
2023-03-26T03:30:10.862Z,7.39
2023-03-26T03:32:43.917Z,7.36
2023-03-26T03:35:15.450Z,7.39
2023-03-26T03:37:49.714Z,7.35
2023-03-26T03:40:22.837Z,7.37
2023-03-26T03:42:51.012Z,7.38
2023-03-26T03:45:27.592Z,7.34
2023-03-26T03:48:00.550Z,7.39
2023-03-26T03:50:35.849Z,7.37
2023-03-26T03:53:12.228Z,7.29
2023-03-26T03:55:54.124Z,7.31
2023-03-26T03:58:28.479Z,7.35
2023-03-26T04:01:00.704Z,7.35
2023-03-26T04:03:33.481Z,7.31
2023-03-26T04:06:08.218Z,7.20
2023-03-26T04:08:40.327Z,7.17
2023-03-26T04:11:10.757Z,7.16
2023-03-26T04:13:42.292Z,7.12
2023-03-26T04:16:21.133Z,7.14
2023-03-26T04:18:49.322Z,7.20
2023-03-26T04:21:19.361Z,7.19
2023-03-26T04:23:54.370Z,7.17
2023-03-26T04:26:25.882Z,7.25
2023-03-26T04:29:00.897Z,7.25
2023-03-26T04:31:31.183Z,7.18
2023-03-26T04:34:09.107Z,7.19
2023-03-26T04:36:40.906Z,7.20
2023-03-26T04:39:14.334Z,7.16
2023-03-26T04:41:42.628Z,7.20
2023-03-26T04:44:11.810Z,7.23
2023-03-26T04:46:46.967Z,7.14
2023-03-26T04:49:21.706Z,7.17
2023-03-26T04:51:57.587Z,7.25
2023-03-26T04:54:30.684Z,7.17
2023-03-26T04:57:09.589Z,7.12
2023-03-26T04:59:44.346Z,7.18
2023-03-26T05:02:19.720Z,7.18
2023-03-26T05:04:55.877Z,7.18
2023-03-26T05:07:28.961Z,7.20
2023-03-26T05:10:04.763Z,7.23
2023-03-26T05:12:36.352Z,7.23
2023-03-26T05:15:10.324Z,7.10
2023-03-26T05:17:45.454Z,7.12
2023-03-26T05:20:27.650Z,7.17
2023-03-26T05:23:00.089Z,7.15
2023-03-26T05:25:28.159Z,7.22
2023-03-26T05:27:56.051Z,7.23
2023-03-26T05:30:24.196Z,7.14
2023-03-26T05:32:53.521Z,7.20
2023-03-26T05:35:21.735Z,7.12
2023-03-26T05:37:51.426Z,7.23
2023-03-26T05:40:20.130Z,7.15
2023-03-26T05:42:48.446Z,7.05
2023-03-26T05:45:16.803Z,7.15
2023-03-26T05:47:44.755Z,7.04
2023-03-26T05:50:14.025Z,7.06
2023-03-26T05:52:42.443Z,6.97
2023-03-26T05:55:11.328Z,6.86
2023-03-26T05:57:39.190Z,6.74
2023-03-26T06:00:11.201Z,6.34
2023-03-26T06:02:39.221Z,6.18
2023-03-26T06:05:09.836Z,6.12
2023-03-26T06:07:39.222Z,6.07
2023-03-26T06:10:09.346Z,6.06
2023-03-26T06:12:37.804Z,6.06
2023-03-26T06:15:09.459Z,6.09
2023-03-26T06:17:37.491Z,6.16
2023-03-26T06:20:09.429Z,6.15
2023-03-26T06:22:38.998Z,6.25
2023-03-26T06:25:08.701Z,6.38
2023-03-26T06:27:36.608Z,6.42
2023-03-26T06:30:05.601Z,6.49
2023-03-26T06:32:33.687Z,6.51
2023-03-26T06:35:01.618Z,6.59
2023-03-26T06:37:29.757Z,6.63
2023-03-26T06:39:59.103Z,6.68
2023-03-26T06:43:08.020Z,6.77
2023-03-26T06:45:15.025Z,6.84
2023-03-26T06:47:43.022Z,6.89
2023-03-26T06:50:12.543Z,6.95
2023-03-26T06:52:40.961Z,7.04
2023-03-26T06:55:11.256Z,7.05
2023-03-26T06:57:39.854Z,6.99
2023-03-26T07:00:09.746Z,6.98
2023-03-26T07:02:37.751Z,6.98
2023-03-26T07:05:06.369Z,7.01
2023-03-26T07:07:34.322Z,7.20
2023-03-26T07:10:02.261Z,7.44
2023-03-26T07:12:31.729Z,7.49
2023-03-26T07:15:01.865Z,7.50
2023-03-26T07:17:29.876Z,7.51
2023-03-26T07:19:58.194Z,7.61
2023-03-26T07:22:27.466Z,7.65
2023-03-26T07:24:56.538Z,7.69
2023-03-26T07:27:45.233Z,7.73
2023-03-26T07:30:20.788Z,7.71
2023-03-26T07:32:56.764Z,7.75
2023-03-26T07:35:31.326Z,7.75
2023-03-26T07:38:24.685Z,7.91
2023-03-26T07:41:07.891Z,7.76
2023-03-26T07:43:59.875Z,7.83
2023-03-26T07:46:33.978Z,7.85
2023-03-26T07:49:04.547Z,7.68
2023-03-26T07:51:33.799Z,7.72
2023-03-26T07:54:04.122Z,7.86
2023-03-26T07:56:39.675Z,7.97
2023-03-26T07:59:28.773Z,7.75
2023-03-26T08:02:36.965Z,7.90
2023-03-26T08:05:21.261Z,7.68
2023-03-26T08:08:05.654Z,7.87
2023-03-26T08:10:59.288Z,7.97
2023-03-26T08:13:40.180Z,8.03
2023-03-26T08:16:19.957Z,8.25
2023-03-26T08:18:56.383Z,8.23
2023-03-26T08:21:31.641Z,8.31
2023-03-26T08:24:11.001Z,8.51
2023-03-26T08:26:55.107Z,8.47
2023-03-26T08:29:34.463Z,8.35
2023-03-26T08:32:10.353Z,8.27
2023-03-26T08:34:39.001Z,8.04
2023-03-26T08:37:06.935Z,7.67
2023-03-26T08:39:34.922Z,7.71
2023-03-26T08:43:04.720Z,7.71
2023-03-26T08:46:21.802Z,7.60
2023-03-26T08:49:22.797Z,7.49
2023-03-26T08:52:42.952Z,7.55
2023-03-26T08:55:53.471Z,7.41
2023-03-26T08:59:07.381Z,7.38
2023-03-26T09:02:28.534Z,7.19
2023-03-26T09:08:53.693Z,6.74
2023-03-26T09:12:16.628Z,6.65
2023-03-26T09:15:28.856Z,6.57
2023-03-26T09:19:02.222Z,6.64
2023-03-26T09:22:44.698Z,6.57
2023-03-26T09:25:43.426Z,6.62
2023-03-26T09:29:12.676Z,6.69
2023-03-26T09:32:22.517Z,6.69
2023-03-26T09:35:15.742Z,6.46
2023-03-26T09:37:58.806Z,6.53
2023-03-26T09:40:39.637Z,6.56
2023-03-26T09:43:43.056Z,6.50
2023-03-26T09:46:28.594Z,6.69
2023-03-26T09:49:30.286Z,6.55
2023-03-26T09:52:25.351Z,6.64
2023-03-26T09:55:21.161Z,6.56
2023-03-26T09:58:30.286Z,6.61
2023-03-26T10:01:11.007Z,6.66
2023-03-26T10:03:52.772Z,6.73
2023-03-26T10:06:48.037Z,6.70
2023-03-26T10:09:48.288Z,7.00
2023-03-26T10:12:29.405Z,7.19
2023-03-26T10:15:20.007Z,7.13
2023-03-26T10:18:28.019Z,7.08
2023-03-26T10:21:05.577Z,7.42
2023-03-26T10:24:03.533Z,7.27
2023-03-26T10:27:09.046Z,7.18
2023-03-26T10:30:42.570Z,7.16
2023-03-26T10:33:25.148Z,7.19
2023-03-26T10:36:26.862Z,7.21
2023-03-26T10:39:37.955Z,7.26
2023-03-26T10:42:32.520Z,7.54
2023-03-26T10:45:22.746Z,7.51
2023-03-26T10:48:13.774Z,7.62
2023-03-26T10:51:24.404Z,7.82
2023-03-26T10:53:58.079Z,7.87
2023-03-26T10:56:33.459Z,8.01
2023-03-26T10:59:08.133Z,8.01
2023-03-26T11:01:51.968Z,8.21
2023-03-26T11:04:46.848Z,8.24
2023-03-26T11:07:26.187Z,8.63
2023-03-26T11:10:04.731Z,8.59
2023-03-26T11:12:50.167Z,8.82
2023-03-26T11:15:28.806Z,8.69
2023-03-26T11:18:14.558Z,8.77
2023-03-26T11:20:50.598Z,8.83
2023-03-26T11:23:36.758Z,9.03
2023-03-26T11:26:17.732Z,8.88
2023-03-26T11:29:32.701Z,9.12
2023-03-26T11:32:10.713Z,9.76
2023-03-26T11:34:46.992Z,9.88
2023-03-26T11:37:28.444Z,9.59
2023-03-26T11:39:59.782Z,9.83
2023-03-26T11:42:29.726Z,9.90
2023-03-26T11:45:04.163Z,9.88
2023-03-26T11:47:39.732Z,9.81
2023-03-26T11:50:19.650Z,10.03
2023-03-26T11:52:47.916Z,10.11
2023-03-26T11:55:16.778Z,10.44
2023-03-26T11:57:54.721Z,10.18
2023-03-26T12:00:27.309Z,10.08
2023-03-26T12:02:59.449Z,9.86
2023-03-26T12:05:33.408Z,10.01
2023-03-26T12:08:04.778Z,10.10
2023-03-26T12:10:38.641Z,10.33
2023-03-26T12:13:33.355Z,10.51
2023-03-26T12:16:11.461Z,10.45
2023-03-26T12:18:41.662Z,10.69
2023-03-26T12:21:14.087Z,10.59
2023-03-26T12:23:57.170Z,10.34
2023-03-26T12:26:41.412Z,10.20
2023-03-26T12:29:13.436Z,10.53
2023-03-26T12:31:55.466Z,10.99
2023-03-26T12:34:30.519Z,11.23
2023-03-26T12:37:00.914Z,11.10
2023-03-26T12:40:10.128Z,11.03
2023-03-26T12:44:45.117Z,11.26
2023-03-26T12:45:23.123Z,11.27
2023-03-26T12:48:02.200Z,10.88
2023-03-26T12:50:59.244Z,10.61
2023-03-26T12:54:01.907Z,10.79
2023-03-26T12:56:38.605Z,10.85
2023-03-26T12:59:44.029Z,10.69
2023-03-26T13:02:54.791Z,10.81
2023-03-26T13:05:41.081Z,10.77
2023-03-26T13:08:58.042Z,10.70
2023-03-26T13:11:40.871Z,10.79
2023-03-26T13:14:32.228Z,10.54
2023-03-26T13:17:10.134Z,10.60
2023-03-26T13:19:47.590Z,10.83
2023-03-26T13:22:32.012Z,10.59
2023-03-26T13:25:21.564Z,10.60
2023-03-26T13:28:02.193Z,10.83
2023-03-26T13:30:39.036Z,10.77
2023-03-26T13:33:39.543Z,10.80
2023-03-26T13:36:23.877Z,10.84
2023-03-26T13:39:10.904Z,10.91
2023-03-26T13:42:18.206Z,10.68
2023-03-26T13:45:05.809Z,10.67
2023-03-26T13:47:42.112Z,10.69
2023-03-26T13:50:26.140Z,10.71
2023-03-26T13:53:01.997Z,10.67
2023-03-26T13:55:35.965Z,10.68
2023-03-26T13:58:18.163Z,10.69
2023-03-26T14:00:59.024Z,10.68
2023-03-26T14:03:39.802Z,10.46
2023-03-26T14:06:18.033Z,10.53
2023-03-26T14:08:54.906Z,10.67
2023-03-26T14:11:41.184Z,10.84
2023-03-26T14:14:17.633Z,10.79
2023-03-26T14:16:53.637Z,11.00
2023-03-26T14:20:14.862Z,10.90
2023-03-26T14:22:57.285Z,10.74
2023-03-26T14:25:51.017Z,10.89
2023-03-26T14:28:59.393Z,10.79
2023-03-26T14:31:37.539Z,10.88
2023-03-26T14:34:34.812Z,10.88
2023-03-26T14:37:51.572Z,10.74
2023-03-26T14:40:31.617Z,10.69
2023-03-26T14:43:24.574Z,10.73
2023-03-26T14:46:28.622Z,11.03
2023-03-26T14:49:38.804Z,10.75
2023-03-26T14:52:18.247Z,10.73
2023-03-26T14:54:50.822Z,10.82
2023-03-26T14:57:58.234Z,11.07
2023-03-26T15:01:04.271Z,11.47
2023-03-26T15:04:44.988Z,11.48
2023-03-26T15:08:07.628Z,11.54
2023-03-26T15:11:11.681Z,11.37
2023-03-26T15:14:02.824Z,11.46
2023-03-26T15:17:37.174Z,11.18
2023-03-26T15:21:13.883Z,10.67
2023-03-26T15:24:58.592Z,10.43
2023-03-26T15:28:26.747Z,10.72
2023-03-26T15:31:31.857Z,10.90
2023-03-26T15:34:48.481Z,10.64
2023-03-26T15:38:33.325Z,10.91
2023-03-26T15:41:17.530Z,10.78
2023-03-26T15:44:53.094Z,10.52
2023-03-26T15:47:57.776Z,10.38
2023-03-26T15:50:40.839Z,10.33
2023-03-26T15:53:41.170Z,10.47
2023-03-26T15:56:25.748Z,10.60
2023-03-26T15:59:06.782Z,10.51
2023-03-26T16:02:02.202Z,10.67
2023-03-26T16:04:50.492Z,10.50
2023-03-26T16:07:40.151Z,10.45
2023-03-26T16:10:28.013Z,10.40
2023-03-26T16:13:39.623Z,10.27
2023-03-26T16:16:55.843Z,10.33
2023-03-26T16:19:52.977Z,10.23
2023-03-26T16:22:55.966Z,10.22
2023-03-26T16:25:31.712Z,9.99
2023-03-26T16:28:29.967Z,9.96
2023-03-26T16:31:38.091Z,9.91
2023-03-26T16:34:29.550Z,10.16
2023-03-26T16:37:00.603Z,10.05
2023-03-26T16:39:49.230Z,9.87
2023-03-26T16:42:39.533Z,9.71
2023-03-26T16:45:22.826Z,9.68
2023-03-26T16:48:09.157Z,9.74
2023-03-26T16:50:52.681Z,9.66
2023-03-26T16:53:41.678Z,9.84
2023-03-26T16:56:18.097Z,9.70
2023-03-26T16:58:56.243Z,9.64
2023-03-26T17:01:36.515Z,9.59
2023-03-26T17:04:11.595Z,9.45
2023-03-26T17:07:08.588Z,9.39
2023-03-26T17:09:55.602Z,9.58
2023-03-26T17:12:35.478Z,9.34
2023-03-26T17:15:30.910Z,9.41
2023-03-26T17:18:25.748Z,9.05
2023-03-26T17:21:04.687Z,8.85
2023-03-26T17:23:55.859Z,8.72
2023-03-26T17:26:32.244Z,8.66
2023-03-26T17:29:24.324Z,8.57
2023-03-26T17:32:01.596Z,8.49
2023-03-26T17:35:02.098Z,8.47
2023-03-26T17:37:47.935Z,8.34
2023-03-26T17:40:49.376Z,8.33
2023-03-26T17:43:45.474Z,8.23
2023-03-26T17:46:32.913Z,8.21
2023-03-26T17:49:14.541Z,8.09
2023-03-26T17:51:52.443Z,7.99
2023-03-26T17:54:32.164Z,7.92
2023-03-26T17:57:04.373Z,7.94
2023-03-26T17:59:34.082Z,7.90
2023-03-26T18:02:05.393Z,7.89
2023-03-26T18:04:40.070Z,7.84
2023-03-26T18:07:36.006Z,7.77
2023-03-26T18:10:33.111Z,7.63
2023-03-26T18:13:37.447Z,7.71
2023-03-26T18:16:16.059Z,7.63
2023-03-26T18:18:51.344Z,7.95
2023-03-26T18:21:33.668Z,7.89
2023-03-26T18:24:03.175Z,7.71
2023-03-26T18:26:38.530Z,7.60
2023-03-26T18:29:23.826Z,7.58
2023-03-26T18:31:57.757Z,7.76
2023-03-26T18:34:29.147Z,7.68
2023-03-26T18:37:17.719Z,7.59
2023-03-26T18:39:59.292Z,7.58
2023-03-26T18:42:30.364Z,7.49
2023-03-26T18:45:00.837Z,7.53
2023-03-26T18:47:32.392Z,7.55
2023-03-26T18:50:01.689Z,7.47
2023-03-26T18:52:36.287Z,7.39
2023-03-26T18:55:04.916Z,7.34
2023-03-26T18:57:32.951Z,7.32
2023-03-26T19:00:20.551Z,7.23
2023-03-26T19:03:03.379Z,7.26
2023-03-26T19:05:35.091Z,7.21
2023-03-26T19:08:08.217Z,7.18
2023-03-26T19:10:38.175Z,7.15
2023-03-26T19:13:06.201Z,7.22
2023-03-26T19:20:47.976Z,7.20
2023-03-26T19:27:15.120Z,7.15
2023-03-26T19:29:45.127Z,7.14
2023-03-26T19:32:20.938Z,7.18
2023-03-26T19:34:50.673Z,7.18
2023-03-26T19:37:21.874Z,7.13
2023-03-26T19:39:54.382Z,7.03
2023-03-26T19:42:42.950Z,6.97
2023-03-26T19:45:19.874Z,6.89
2023-03-26T19:48:51.990Z,6.87
2023-03-26T19:51:23.355Z,6.80
2023-03-26T19:53:55.841Z,6.78
2023-03-26T19:56:25.741Z,6.71
2023-03-26T19:58:54.572Z,6.74
2023-03-26T20:01:26.691Z,6.66
2023-03-26T20:03:59.034Z,6.57
2023-03-26T20:06:42.323Z,6.54
2023-03-26T20:09:12.541Z,6.47
2023-03-26T20:11:42.242Z,6.38
2023-03-26T20:14:16.723Z,6.29
2023-03-26T20:16:45.812Z,6.29
2023-03-26T20:19:15.195Z,6.21
2023-03-26T20:21:44.313Z,6.22
2023-03-26T20:24:15.032Z,6.18
2023-03-26T20:26:45.732Z,6.17
2023-03-26T20:29:14.987Z,6.08
2023-03-26T20:31:44.318Z,6.09
2023-03-26T20:34:18.780Z,6.04
2023-03-26T20:36:47.445Z,6.02
2023-03-26T20:39:15.542Z,6.05
2023-03-26T20:41:49.937Z,6.01
2023-03-26T20:44:20.890Z,6.02
2023-03-26T20:46:51.398Z,5.94
2023-03-26T20:49:22.010Z,5.95
2023-03-26T20:51:49.950Z,5.92
2023-03-26T20:54:23.073Z,5.95
2023-03-26T20:56:54.420Z,5.91
2023-03-26T20:59:26.551Z,5.93
2023-03-26T21:01:57.486Z,5.94
2023-03-26T21:04:26.988Z,5.85
2023-03-26T21:07:00.608Z,5.75
2023-03-26T21:09:36.184Z,5.78
2023-03-26T21:12:09.577Z,5.67
2023-03-26T21:14:42.066Z,5.69
2023-03-26T21:17:17.488Z,5.72
2023-03-26T21:19:47.579Z,5.67
2023-03-26T21:22:31.459Z,5.65
2023-03-26T21:25:17.519Z,5.64
2023-03-26T21:27:58.726Z,5.46
2023-03-26T21:30:27.573Z,5.54
2023-03-26T21:32:55.730Z,5.59
2023-03-26T21:35:24.710Z,5.52
2023-03-26T21:37:54.126Z,5.55
2023-03-26T21:40:22.335Z,5.42
2023-03-26T21:42:54.706Z,5.34
2023-03-26T21:45:24.023Z,5.31
2023-03-26T21:47:52.902Z,5.31
2023-03-26T21:50:23.599Z,5.28
2023-03-26T21:52:52.906Z,5.32
2023-03-26T21:55:23.424Z,5.31
2023-03-26T21:58:17.617Z,5.25
2023-03-26T22:01:06.307Z,5.20
2023-03-26T22:03:46.901Z,5.15
2023-03-26T22:06:25.998Z,5.15
2023-03-26T22:08:54.348Z,5.07
2023-03-26T22:11:22.169Z,5.12
2023-03-26T22:13:51.391Z,5.12
2023-03-26T22:16:19.375Z,5.16
2023-03-26T22:18:47.279Z,5.13
2023-03-26T22:21:15.303Z,5.08
2023-03-26T22:23:43.169Z,5.07
2023-03-26T22:26:11.042Z,5.13
2023-03-26T22:28:39.243Z,5.06
2023-03-26T22:31:09.695Z,4.98
2023-03-26T22:33:40.034Z,4.87
2023-03-26T22:36:22.411Z,4.97
2023-03-26T22:38:54.617Z,4.96
2023-03-26T22:41:23.938Z,4.89
2023-03-26T22:43:52.690Z,4.84
2023-03-26T22:46:22.406Z,4.79
2023-03-26T22:48:51.110Z,4.79
2023-03-26T22:51:20.097Z,4.71
2023-03-26T22:53:48.316Z,4.72
2023-03-26T22:56:17.080Z,4.71
2023-03-26T22:58:45.413Z,4.76
2023-03-26T23:01:17.861Z,4.57
2023-03-26T23:03:47.568Z,4.64
2023-03-26T23:06:16.114Z,4.59
2023-03-26T23:08:44.495Z,4.50
2023-03-26T23:11:14.980Z,4.50
2023-03-26T23:13:44.625Z,4.61
2023-03-26T23:16:14.109Z,4.50
2023-03-26T23:18:42.655Z,4.43
2023-03-26T23:21:18.192Z,4.38
2023-03-26T23:23:46.933Z,4.39
2023-03-26T23:26:15.444Z,4.34
2023-03-26T23:28:44.157Z,4.28
2023-03-26T23:31:14.019Z,4.26
2023-03-26T23:33:46.156Z,4.22
2023-03-26T23:36:18.940Z,4.24
2023-03-26T23:38:49.093Z,4.32
2023-03-26T23:41:21.420Z,4.15
2023-03-26T23:43:55.498Z,4.11
2023-03-26T23:46:30.820Z,4.09
2023-03-26T23:48:59.814Z,4.11
2023-03-26T23:51:30.488Z,4.10
2023-03-26T23:53:59.683Z,3.97
2023-03-26T23:56:29.635Z,4.00
2023-03-26T23:58:58.134Z,3.86
